createdAt,value
2022-11-15T00:00:32.724Z,11.60
2022-11-15T00:01:32.739Z,11.90
2022-11-15T00:02:32.762Z,11.10
2022-11-15T00:03:33.037Z,11.30
2022-11-15T00:04:32.689Z,11.10
2022-11-15T00:05:32.663Z,11.80
2022-11-15T00:06:32.669Z,11.90
2022-11-15T00:07:54.740Z,10.90
2022-11-15T00:08:32.637Z,9.50
2022-11-15T00:09:32.607Z,12.00
2022-11-15T00:10:32.588Z,11.80
2022-11-15T00:11:32.621Z,11.90
2022-11-15T00:12:32.585Z,11.70
2022-11-15T00:13:33.002Z,11.50
2022-11-15T00:14:32.544Z,11.30
2022-11-15T00:15:32.542Z,10.10
2022-11-15T00:16:32.519Z,10.70
2022-11-15T00:17:32.530Z,11.50
2022-11-15T00:18:32.541Z,11.60
2022-11-15T00:19:32.478Z,11.70
2022-11-15T00:20:32.463Z,10.80
2022-11-15T00:21:32.487Z,11.30
2022-11-15T00:22:32.462Z,12.60
2022-11-15T00:23:32.786Z,11.40
2022-11-15T00:24:32.409Z,11.50
2022-11-15T00:25:32.391Z,11.30
2022-11-15T00:26:32.382Z,9.80
2022-11-15T00:27:32.391Z,11.20
2022-11-15T00:28:32.378Z,10.70
2022-11-15T00:29:32.342Z,10.50
2022-11-15T00:30:32.339Z,10.90
2022-11-15T00:31:32.349Z,10.20
2022-11-15T00:32:32.298Z,9.20
2022-11-15T00:33:32.748Z,9.40
2022-11-15T00:34:32.274Z,9.20
2022-11-15T00:35:32.278Z,9.40
2022-11-15T00:36:32.278Z,11.10
2022-11-15T00:37:32.261Z,10.40
2022-11-15T00:38:32.219Z,9.50
2022-11-15T00:39:32.222Z,10.90
2022-11-15T00:40:32.187Z,9.80
2022-11-15T00:41:32.180Z,8.60
2022-11-15T00:42:32.180Z,9.80
2022-11-15T00:43:32.496Z,9.20
2022-11-15T00:44:32.141Z,9.40
2022-11-15T00:45:32.127Z,9.10
2022-11-15T00:46:32.115Z,10.70
2022-11-15T00:47:32.124Z,9.60
2022-11-15T00:48:32.083Z,10.00
2022-11-15T00:49:32.083Z,8.80
2022-11-15T00:50:32.058Z,9.40
2022-11-15T00:51:32.069Z,10.30
2022-11-15T00:52:32.035Z,9.10
2022-11-15T00:53:32.349Z,9.10
2022-11-15T00:54:32.030Z,9.50
2022-11-15T00:55:32.032Z,8.20
2022-11-15T00:56:31.985Z,10.10
2022-11-15T00:57:31.962Z,9.20
2022-11-15T00:58:31.951Z,8.80
2022-11-15T00:59:31.949Z,9.50
2022-11-15T01:00:32.061Z,9.10
2022-11-15T01:01:31.911Z,8.60
2022-11-15T01:02:31.898Z,8.70
2022-11-15T01:03:32.186Z,8.40
2022-11-15T01:04:31.875Z,9.10
2022-11-15T01:05:31.883Z,8.50
2022-11-15T01:06:31.842Z,8.30
2022-11-15T01:07:31.925Z,8.50
2022-11-15T01:08:31.816Z,7.90
2022-11-15T01:09:31.799Z,8.70
2022-11-15T01:10:31.807Z,8.30
2022-11-15T01:11:31.778Z,7.80
2022-11-15T01:12:31.790Z,8.50
2022-11-15T01:13:32.126Z,8.40
2022-11-15T01:14:31.807Z,7.70
2022-11-15T01:15:31.757Z,7.60
2022-11-15T01:16:31.712Z,9.00
2022-11-15T01:17:31.703Z,7.90
2022-11-15T01:18:31.685Z,8.20
2022-11-15T01:19:31.680Z,7.80
2022-11-15T01:20:31.688Z,9.70
2022-11-15T01:21:31.647Z,8.80
2022-11-15T01:22:31.683Z,8.00
2022-11-15T01:23:32.134Z,8.10
2022-11-15T01:24:31.601Z,7.80
2022-11-15T01:25:31.598Z,7.80
2022-11-15T01:26:31.592Z,8.30
2022-11-15T01:27:31.608Z,7.90
2022-11-15T01:28:31.555Z,7.70
2022-11-15T01:29:31.553Z,7.80
2022-11-15T01:30:31.526Z,9.30
2022-11-15T01:31:31.520Z,8.20
2022-11-15T01:32:31.498Z,7.20
2022-11-15T01:33:31.794Z,7.80
2022-11-15T01:34:31.478Z,7.30
2022-11-15T01:35:31.463Z,7.40
2022-11-15T01:36:31.465Z,6.70
2022-11-15T01:37:31.439Z,8.10
2022-11-15T01:38:31.417Z,7.60
2022-11-15T01:39:31.411Z,7.10
2022-11-15T01:40:31.445Z,8.10
2022-11-15T01:41:31.406Z,7.40
2022-11-15T01:42:31.368Z,7.70
2022-11-15T01:43:31.789Z,8.00
2022-11-15T01:44:31.339Z,8.80
2022-11-15T01:45:31.329Z,8.70
2022-11-15T01:46:31.335Z,7.60
2022-11-15T01:47:31.301Z,8.60
2022-11-15T01:48:31.279Z,8.20
2022-11-15T01:49:31.274Z,8.60
2022-11-15T01:50:31.290Z,8.10
2022-11-15T01:51:31.270Z,7.90
2022-11-15T01:52:31.232Z,7.30
2022-11-15T01:53:31.633Z,7.60
2022-11-15T01:54:31.199Z,8.00
2022-11-15T01:55:31.222Z,7.80
2022-11-15T01:56:31.210Z,7.20
2022-11-15T01:57:31.164Z,8.20
2022-11-15T01:58:31.146Z,6.90
2022-11-15T01:59:31.147Z,7.20
2022-11-15T02:00:31.209Z,7.20
2022-11-15T02:01:31.173Z,8.90
2022-11-15T02:02:31.118Z,7.40
2022-11-15T02:03:31.425Z,7.30
2022-11-15T02:04:31.077Z,7.80
2022-11-15T02:05:31.085Z,7.80
2022-11-15T02:06:31.068Z,7.30
2022-11-15T02:07:31.056Z,7.30
2022-11-15T02:08:31.012Z,7.30
2022-11-15T02:09:31.007Z,7.00
2022-11-15T02:10:30.995Z,7.20
2022-11-15T02:11:31.008Z,7.40
2022-11-15T02:12:32.516Z,7.20
2022-11-15T02:13:31.251Z,7.20
2022-11-15T02:14:31.007Z,7.20
2022-11-15T02:15:30.927Z,7.10
2022-11-15T02:16:30.926Z,7.30
2022-11-15T02:17:30.908Z,7.00
2022-11-15T02:18:30.884Z,7.20
2022-11-15T02:19:30.883Z,6.90
2022-11-15T02:20:30.880Z,6.90
2022-11-15T02:21:30.872Z,7.40
2022-11-15T02:22:30.842Z,6.90
2022-11-15T02:23:31.149Z,8.80
2022-11-15T02:24:30.798Z,8.30
2022-11-15T02:25:30.796Z,7.70
2022-11-15T02:26:30.802Z,6.80
2022-11-15T02:27:30.770Z,7.20
2022-11-15T02:28:30.754Z,7.20
2022-11-15T02:29:30.772Z,7.40
2022-11-15T02:30:30.746Z,8.70
2022-11-15T02:31:30.736Z,7.70
2022-11-15T02:32:30.718Z,6.60
2022-11-15T02:33:30.969Z,8.10
2022-11-15T02:34:30.699Z,7.10
2022-11-15T02:35:30.663Z,7.40
2022-11-15T02:36:30.643Z,7.80
2022-11-15T02:37:30.664Z,7.60
2022-11-15T02:38:30.616Z,7.70
2022-11-15T02:39:30.611Z,6.90
2022-11-15T02:40:30.601Z,6.90
2022-11-15T02:41:30.580Z,7.90
2022-11-15T02:42:30.610Z,8.50
2022-11-15T02:43:30.952Z,7.40
2022-11-15T02:44:30.541Z,8.20
2022-11-15T02:45:30.525Z,8.70
2022-11-15T02:46:30.511Z,8.90
2022-11-15T02:47:30.506Z,9.30
2022-11-15T02:48:30.516Z,8.60
2022-11-15T02:49:30.483Z,8.80
2022-11-15T02:50:30.475Z,8.00
2022-11-15T02:51:30.443Z,8.60
2022-11-15T02:52:30.432Z,8.90
2022-11-15T02:53:30.722Z,8.60
2022-11-15T02:54:30.449Z,8.10
2022-11-15T02:55:30.436Z,9.20
2022-11-15T02:56:30.378Z,7.60
2022-11-15T02:57:30.365Z,7.80
2022-11-15T02:58:30.355Z,8.80
2022-11-15T02:59:30.341Z,9.30
2022-11-15T03:00:30.484Z,9.60
2022-11-15T03:01:30.329Z,10.60
2022-11-15T03:02:30.310Z,8.80
2022-11-15T03:03:30.775Z,9.20
2022-11-15T03:04:30.307Z,7.60
2022-11-15T03:05:30.257Z,8.00
2022-11-15T03:06:30.244Z,7.60
2022-11-15T03:07:30.259Z,7.70
2022-11-15T03:08:30.231Z,8.50
2022-11-15T03:09:30.230Z,8.40
2022-11-15T03:10:30.221Z,7.70
2022-11-15T03:11:30.196Z,7.70
2022-11-15T03:12:30.222Z,8.00
2022-11-15T03:13:30.538Z,7.40
2022-11-15T03:14:30.164Z,8.00
2022-11-15T03:15:30.123Z,7.50
2022-11-15T03:16:30.115Z,6.90
2022-11-15T03:17:30.099Z,7.20
2022-11-15T03:18:30.089Z,7.70
2022-11-15T03:19:30.102Z,7.70
2022-11-15T03:20:30.069Z,7.60
2022-11-15T03:21:30.045Z,7.80
2022-11-15T03:22:30.073Z,8.00
2022-11-15T03:23:30.340Z,7.30
2022-11-15T03:24:30.013Z,8.60
2022-11-15T03:25:29.998Z,7.40
2022-11-15T03:26:29.993Z,7.90
2022-11-15T03:27:29.964Z,7.70
2022-11-15T03:28:29.974Z,8.10
2022-11-15T03:29:29.936Z,8.20
2022-11-15T03:30:29.941Z,7.70
2022-11-15T03:31:29.915Z,7.30
2022-11-15T03:32:29.936Z,8.10
2022-11-15T03:33:30.188Z,8.20
2022-11-15T03:34:29.875Z,7.80
2022-11-15T03:35:29.859Z,7.30
2022-11-15T03:36:29.876Z,7.90
2022-11-15T03:37:29.845Z,9.10
2022-11-15T03:38:29.973Z,8.30
2022-11-15T03:39:29.832Z,8.70
2022-11-15T03:40:29.801Z,8.60
2022-11-15T03:41:29.782Z,9.70
2022-11-15T03:42:29.776Z,8.60
2022-11-15T03:43:30.088Z,7.70
2022-11-15T03:44:29.775Z,10.10
2022-11-15T03:45:29.730Z,7.80
2022-11-15T03:46:29.747Z,7.50
2022-11-15T03:47:29.705Z,7.60
2022-11-15T03:48:29.695Z,7.90
2022-11-15T03:49:29.677Z,7.50
2022-11-15T03:50:29.677Z,7.50
2022-11-15T03:51:29.677Z,8.00
2022-11-15T03:52:29.637Z,7.60
2022-11-15T03:53:29.990Z,7.30
2022-11-15T03:54:29.617Z,8.80
2022-11-15T03:55:29.654Z,7.10
2022-11-15T03:56:29.591Z,7.40
2022-11-15T03:57:29.570Z,7.80
2022-11-15T03:58:29.563Z,8.10
2022-11-15T03:59:29.570Z,7.60
2022-11-15T04:00:29.534Z,7.80
2022-11-15T04:01:29.531Z,8.30
2022-11-15T04:02:29.510Z,8.20
2022-11-15T04:03:29.791Z,7.60
2022-11-15T04:04:29.509Z,8.00
2022-11-15T04:05:29.462Z,8.20
2022-11-15T04:06:29.490Z,7.70
2022-11-15T04:07:29.459Z,8.10
2022-11-15T04:08:29.430Z,8.30
2022-11-15T04:09:29.409Z,7.70
2022-11-15T04:10:29.406Z,8.10
2022-11-15T04:11:29.420Z,8.00
2022-11-15T04:12:29.379Z,7.90
2022-11-15T04:13:29.789Z,8.40
2022-11-15T04:14:29.347Z,9.30
2022-11-15T04:15:29.336Z,8.40
2022-11-15T04:16:29.318Z,8.80
2022-11-15T04:17:29.305Z,7.80
2022-11-15T04:18:29.319Z,8.50
2022-11-15T04:19:29.280Z,8.00
2022-11-15T04:20:29.266Z,8.30
2022-11-15T04:21:29.256Z,9.30
2022-11-15T04:22:29.272Z,8.20
2022-11-15T04:23:29.576Z,9.10
2022-11-15T04:24:29.212Z,9.40
2022-11-15T04:25:32.249Z,9.20
2022-11-15T04:26:29.194Z,9.20
2022-11-15T04:27:29.199Z,8.90
2022-11-15T04:28:29.200Z,8.30
2022-11-15T04:29:29.190Z,9.50
2022-11-15T04:30:29.142Z,10.20
2022-11-15T04:31:29.123Z,10.50
2022-11-15T04:32:29.122Z,9.60
2022-11-15T04:33:29.457Z,8.50
2022-11-15T04:34:29.086Z,8.80
2022-11-15T04:35:29.114Z,8.30
2022-11-15T04:36:29.058Z,8.50
2022-11-15T04:37:29.050Z,9.20
2022-11-15T04:38:29.028Z,8.10
2022-11-15T04:39:29.023Z,8.50
2022-11-15T04:40:29.031Z,8.40
2022-11-15T04:41:28.987Z,7.70
2022-11-15T04:42:28.981Z,7.80
2022-11-15T04:43:29.226Z,8.30
2022-11-15T04:44:28.950Z,8.70
2022-11-15T04:45:28.947Z,8.60
2022-11-15T04:46:28.945Z,8.60
2022-11-15T04:47:28.934Z,9.40
2022-11-15T04:48:28.895Z,8.60
2022-11-15T04:49:28.902Z,8.50
2022-11-15T04:50:28.865Z,9.00
2022-11-15T04:51:28.947Z,8.10
2022-11-15T04:52:28.850Z,9.20
2022-11-15T04:53:28.974Z,9.10
2022-11-15T04:54:28.821Z,9.50
2022-11-15T04:55:28.835Z,8.40
2022-11-15T04:56:28.798Z,8.70
2022-11-15T04:57:28.777Z,8.50
2022-11-15T04:58:28.761Z,8.70
2022-11-15T04:59:28.741Z,9.30
2022-11-15T05:00:28.762Z,9.10
2022-11-15T05:01:28.758Z,8.50
2022-11-15T05:02:28.711Z,9.30
2022-11-15T05:03:28.872Z,8.90
2022-11-15T05:04:28.708Z,8.90
2022-11-15T05:05:28.673Z,8.50
2022-11-15T05:06:28.656Z,9.10
2022-11-15T05:07:28.745Z,8.20
2022-11-15T05:08:28.632Z,9.60
2022-11-15T05:09:28.632Z,8.50
2022-11-15T05:10:28.607Z,8.90
2022-11-15T05:11:28.591Z,9.30
2022-11-15T05:12:28.591Z,9.30
2022-11-15T05:13:28.748Z,11.10
2022-11-15T05:14:28.552Z,9.60
2022-11-15T05:15:28.536Z,8.80
2022-11-15T05:16:28.554Z,9.20
2022-11-15T05:17:28.516Z,9.30
2022-11-15T05:18:28.505Z,75.90
2022-11-15T05:19:28.494Z,47.40
2022-11-15T05:20:28.475Z,115.70
2022-11-15T05:21:28.484Z,56.20
2022-11-15T05:22:28.481Z,18.00
2022-11-15T05:23:28.551Z,30.30
2022-11-15T05:24:28.425Z,73.40
2022-11-15T05:25:28.408Z,50.70
2022-11-15T05:26:28.416Z,53.10
2022-11-15T05:27:28.403Z,36.60
2022-11-15T05:28:28.371Z,43.70
2022-11-15T05:29:28.372Z,162.30
2022-11-15T05:30:28.344Z,172.00
2022-11-15T05:31:28.351Z,78.30
2022-11-15T05:32:28.313Z,84.20
2022-11-15T05:33:28.385Z,61.60
2022-11-15T05:34:28.287Z,71.50
2022-11-15T05:35:28.279Z,61.10
2022-11-15T05:36:28.295Z,56.40
2022-11-15T05:37:28.278Z,47.40
2022-11-15T05:38:28.231Z,42.30
2022-11-15T05:39:28.216Z,47.90
2022-11-15T05:40:28.208Z,44.90
2022-11-15T05:41:28.192Z,35.80
2022-11-15T05:42:28.207Z,45.10
2022-11-15T05:43:28.309Z,39.10
2022-11-15T05:44:28.154Z,31.20
2022-11-15T05:45:28.142Z,29.00
2022-11-15T05:46:28.134Z,36.80
2022-11-15T05:47:28.130Z,56.70
2022-11-15T05:48:28.108Z,63.30
2022-11-15T05:49:28.130Z,47.80
2022-11-15T05:50:28.076Z,100.70
2022-11-15T05:51:28.062Z,74.40
2022-11-15T05:52:28.077Z,66.50
2022-11-15T05:53:28.059Z,28.40
2022-11-15T05:54:28.014Z,20.30
2022-11-15T05:55:27.999Z,20.00
2022-11-15T05:56:27.991Z,27.90
2022-11-15T05:57:28.005Z,24.60
2022-11-15T05:58:27.978Z,16.10
2022-11-15T05:59:27.950Z,18.60
2022-11-15T06:00:27.943Z,17.10
2022-11-15T06:01:27.944Z,13.60
2022-11-15T06:02:27.981Z,16.20
2022-11-15T06:03:27.926Z,13.80
2022-11-15T06:04:27.917Z,15.70
2022-11-15T06:05:27.871Z,14.30
2022-11-15T06:06:27.886Z,37.60
2022-11-15T06:07:27.920Z,28.80
2022-11-15T06:08:27.870Z,24.90
2022-11-15T06:09:27.817Z,28.70
2022-11-15T06:10:27.810Z,28.30
2022-11-15T06:11:27.787Z,27.30
2022-11-15T06:12:27.813Z,29.30
2022-11-15T06:13:27.831Z,29.40
2022-11-15T06:14:27.754Z,32.70
2022-11-15T06:15:27.742Z,30.20
2022-11-15T06:16:27.730Z,23.60
2022-11-15T06:17:27.744Z,16.00
2022-11-15T06:18:27.704Z,13.40
2022-11-15T06:19:27.707Z,15.70
2022-11-15T06:20:27.672Z,16.10
2022-11-15T06:21:27.686Z,17.40
2022-11-15T06:22:27.643Z,16.90
2022-11-15T06:23:27.673Z,18.70
2022-11-15T06:24:27.627Z,19.10
2022-11-15T06:25:27.632Z,18.60
2022-11-15T06:26:27.598Z,20.70
2022-11-15T06:27:27.599Z,18.60
2022-11-15T06:28:27.591Z,20.80
2022-11-15T06:29:27.549Z,19.90
2022-11-15T06:30:27.551Z,17.40
2022-11-15T06:31:27.554Z,6.50
2022-11-15T06:32:27.524Z,8.00
2022-11-15T06:33:27.500Z,13.30
2022-11-15T06:34:27.510Z,12.30
2022-11-15T06:35:27.480Z,19.00
2022-11-15T06:36:27.456Z,10.30
2022-11-15T06:37:27.492Z,13.20
2022-11-15T06:38:27.434Z,17.30
2022-11-15T06:39:27.459Z,11.20
2022-11-15T06:40:27.406Z,16.50
2022-11-15T06:41:27.395Z,17.60
2022-11-15T06:42:27.381Z,8.30
2022-11-15T06:43:27.363Z,8.00
2022-11-15T06:44:27.355Z,9.60
2022-11-15T06:45:27.364Z,9.90
2022-11-15T06:46:27.333Z,25.20
2022-11-15T06:47:27.315Z,15.60
2022-11-15T06:48:27.308Z,17.20
2022-11-15T06:49:27.289Z,13.50
2022-11-15T06:50:27.318Z,16.30
2022-11-15T06:51:27.263Z,12.20
2022-11-15T06:52:27.253Z,11.00
2022-11-15T06:53:27.265Z,16.70
2022-11-15T06:54:27.260Z,18.20
2022-11-15T06:55:27.258Z,15.60
2022-11-15T06:56:27.214Z,15.70
2022-11-15T06:57:27.182Z,17.40
2022-11-15T06:58:27.162Z,17.50
2022-11-15T06:59:27.153Z,18.10
2022-11-15T07:00:27.155Z,15.30
2022-11-15T07:01:27.243Z,26.50
2022-11-15T07:02:27.120Z,17.10
2022-11-15T07:03:27.091Z,13.40
2022-11-15T07:04:27.114Z,12.10
2022-11-15T07:05:27.082Z,13.90
2022-11-15T07:06:27.086Z,10.70
2022-11-15T07:07:27.227Z,10.10
2022-11-15T07:08:27.038Z,7.40
2022-11-15T07:09:27.028Z,6.80
2022-11-15T07:10:27.019Z,8.00
2022-11-15T07:11:27.031Z,10.00
2022-11-15T07:12:27.056Z,32.10
2022-11-15T07:13:26.972Z,9.90
2022-11-15T07:14:26.963Z,10.80
2022-11-15T07:15:26.974Z,10.10
2022-11-15T07:16:26.931Z,28.90
2022-11-15T07:17:26.916Z,14.50
2022-11-15T07:18:26.905Z,16.70
2022-11-15T07:19:26.907Z,9.80
2022-11-15T07:20:26.871Z,9.20
2022-11-15T07:21:27.806Z,9.20
2022-11-15T07:22:26.882Z,10.60
2022-11-15T07:23:26.837Z,9.90
2022-11-15T07:24:26.822Z,10.00
2022-11-15T07:25:26.875Z,10.10
2022-11-15T07:26:26.798Z,11.10
2022-11-15T07:27:26.801Z,10.40
2022-11-15T07:28:26.771Z,10.50
2022-11-15T07:29:26.767Z,8.10
2022-11-15T07:30:26.740Z,9.90
2022-11-15T07:31:26.733Z,9.30
2022-11-15T07:32:26.755Z,8.90
2022-11-15T07:33:26.711Z,9.30
2022-11-15T07:34:26.685Z,8.20
2022-11-15T07:35:26.687Z,8.20
2022-11-15T07:36:26.675Z,8.60
2022-11-15T07:37:26.676Z,8.50
2022-11-15T07:38:26.630Z,8.00
2022-11-15T07:39:26.643Z,9.90
2022-11-15T07:40:26.642Z,8.70
2022-11-15T07:41:26.748Z,8.20
2022-11-15T07:42:26.595Z,27.70
2022-11-15T07:43:26.600Z,19.50
2022-11-15T07:44:26.554Z,12.40
2022-11-15T07:45:26.555Z,13.90
2022-11-15T07:46:26.563Z,12.90
2022-11-15T07:47:26.521Z,11.30
2022-11-15T07:48:35.703Z,9.90
2022-11-15T07:49:26.508Z,9.30
2022-11-15T07:50:26.476Z,24.50
2022-11-15T07:51:26.484Z,12.20
2022-11-15T07:52:26.448Z,10.00
2022-11-15T07:53:26.487Z,8.90
2022-11-15T07:54:26.477Z,35.70
2022-11-15T07:55:26.413Z,20.10
2022-11-15T07:56:26.392Z,16.30
2022-11-15T07:57:26.382Z,8.00
2022-11-15T07:58:26.391Z,6.90
2022-11-15T07:59:26.359Z,6.40
2022-11-15T08:00:26.439Z,8.00
2022-11-15T08:01:26.433Z,7.40
2022-11-15T08:02:30.268Z,7.10
2022-11-15T08:03:26.339Z,7.00
2022-11-15T08:04:26.290Z,6.10
2022-11-15T08:05:26.296Z,5.70
2022-11-15T08:06:26.269Z,6.90
2022-11-15T08:07:26.363Z,7.30
2022-11-15T08:08:26.244Z,6.20
2022-11-15T08:09:26.220Z,9.40
2022-11-15T08:10:26.324Z,13.30
2022-11-15T08:11:26.202Z,7.40
2022-11-15T08:12:26.215Z,5.40
2022-11-15T08:13:26.225Z,4.70
2022-11-15T08:14:26.183Z,5.00
2022-11-15T08:15:26.146Z,4.90
2022-11-15T08:16:26.123Z,4.60
2022-11-15T08:17:26.121Z,4.70
2022-11-15T08:18:26.143Z,4.00
2022-11-15T08:19:26.090Z,4.30
2022-11-15T08:20:26.109Z,4.40
2022-11-15T08:21:26.061Z,4.00
2022-11-15T08:22:26.044Z,4.30
2022-11-15T08:23:26.058Z,3.70
2022-11-15T08:24:26.052Z,3.80
2022-11-15T08:25:26.050Z,4.20
2022-11-15T08:26:26.020Z,3.90
2022-11-15T08:27:26.014Z,3.90
2022-11-15T08:28:25.970Z,3.80
2022-11-15T08:29:25.953Z,3.90
2022-11-15T08:30:26.022Z,3.90
2022-11-15T08:31:25.919Z,4.00
2022-11-15T08:32:25.941Z,4.00
2022-11-15T08:33:25.930Z,3.60
2022-11-15T08:34:25.878Z,4.30
2022-11-15T08:35:29.028Z,3.50
2022-11-15T08:36:25.853Z,4.00
2022-11-15T08:37:25.841Z,3.90
2022-11-15T08:38:25.862Z,4.20
2022-11-15T08:39:25.810Z,3.70
2022-11-15T08:40:25.855Z,4.10
2022-11-15T08:41:25.817Z,3.50
2022-11-15T08:42:25.775Z,3.70
2022-11-15T08:43:25.790Z,3.90
2022-11-15T08:44:25.749Z,3.60
2022-11-15T08:45:25.744Z,4.10
2022-11-15T08:46:25.709Z,3.40
2022-11-15T08:47:25.743Z,3.50
2022-11-15T08:48:25.712Z,3.40
2022-11-15T08:49:25.685Z,3.10
2022-11-15T08:50:25.670Z,3.00
2022-11-15T08:51:25.652Z,3.50
2022-11-15T08:52:25.636Z,3.10
2022-11-15T08:53:25.667Z,3.40
2022-11-15T08:54:25.608Z,3.10
2022-11-15T08:55:25.601Z,3.30
2022-11-15T08:56:25.606Z,3.50
2022-11-15T08:57:25.579Z,3.30
2022-11-15T08:58:25.546Z,3.70
2022-11-15T08:59:25.550Z,3.40
2022-11-15T09:00:25.532Z,3.20
2022-11-15T09:01:25.564Z,3.20
2022-11-15T09:02:25.537Z,3.20
2022-11-15T09:03:25.488Z,2.60
2022-11-15T09:04:25.495Z,3.40
2022-11-15T09:05:25.460Z,2.90
2022-11-15T09:06:25.546Z,2.90
2022-11-15T09:07:25.519Z,3.00
2022-11-15T09:08:56.856Z,3.50
2022-11-15T09:09:25.409Z,3.40
2022-11-15T09:10:25.395Z,3.10
2022-11-15T09:11:25.403Z,3.20
2022-11-15T09:12:25.393Z,3.00
2022-11-15T09:13:25.362Z,3.00
2022-11-15T09:14:25.334Z,3.00
2022-11-15T09:15:25.319Z,2.90
2022-11-15T09:16:25.314Z,3.60
2022-11-15T09:17:25.430Z,3.00
2022-11-15T09:18:25.293Z,3.20
2022-11-15T09:19:25.277Z,2.60
2022-11-15T09:20:25.248Z,7.90
2022-11-15T09:21:25.269Z,5.00
2022-11-15T09:22:25.222Z,3.60
2022-11-15T09:23:25.240Z,4.20
2022-11-15T09:24:25.202Z,6.70
2022-11-15T09:25:25.199Z,3.00
2022-11-15T09:26:25.238Z,2.90
2022-11-15T09:27:25.155Z,2.60
2022-11-15T09:28:25.180Z,2.60
2022-11-15T09:29:25.134Z,2.70
2022-11-15T09:30:25.118Z,2.60
2022-11-15T09:31:25.112Z,3.30
2022-11-15T09:32:25.084Z,2.70
2022-11-15T09:33:25.110Z,2.40
2022-11-15T09:34:25.057Z,2.90
2022-11-15T09:35:25.049Z,2.70
2022-11-15T09:36:25.040Z,2.30
2022-11-15T09:37:25.023Z,2.60
2022-11-15T09:38:25.011Z,2.50
2022-11-15T09:39:25.030Z,2.60
2022-11-15T09:40:24.973Z,2.50
2022-11-15T09:41:25.002Z,2.90
2022-11-15T09:42:24.951Z,2.80
2022-11-15T09:43:24.983Z,3.00
2022-11-15T09:44:25.931Z,2.80
2022-11-15T09:45:24.906Z,2.40
2022-11-15T09:46:24.932Z,2.50
2022-11-15T09:47:24.887Z,2.70
2022-11-15T09:48:24.874Z,2.50
2022-11-15T09:49:24.861Z,2.40
2022-11-15T09:50:24.865Z,2.50
2022-11-15T09:51:24.838Z,2.30
2022-11-15T09:52:24.808Z,2.30
2022-11-15T09:53:50.828Z,2.70
2022-11-15T09:54:51.578Z,2.60
2022-11-15T09:55:24.810Z,2.40
2022-11-15T09:56:24.778Z,2.50
2022-11-15T09:57:24.744Z,2.40
2022-11-15T09:58:24.762Z,3.00
2022-11-15T09:59:24.718Z,2.40
2022-11-15T10:00:45.954Z,2.10
2022-11-15T10:01:24.738Z,2.50
2022-11-15T10:02:24.676Z,2.50
2022-11-15T10:03:24.680Z,2.70
2022-11-15T10:04:24.688Z,2.40
2022-11-15T10:05:24.658Z,2.40
2022-11-15T10:06:24.624Z,3.00
2022-11-15T10:07:24.680Z,2.70
2022-11-15T10:08:24.599Z,2.30
2022-11-15T10:09:24.598Z,2.30
2022-11-15T10:10:24.596Z,2.40
2022-11-15T10:11:40.185Z,2.50
2022-11-15T10:12:24.554Z,2.10
2022-11-15T10:13:24.536Z,2.30
2022-11-15T10:14:24.521Z,2.30
2022-11-15T10:15:24.546Z,2.20
2022-11-15T10:16:24.557Z,2.20
2022-11-15T10:17:24.513Z,2.20
2022-11-15T10:18:24.467Z,2.00
2022-11-15T10:19:24.451Z,2.00
2022-11-15T10:20:24.434Z,1.90
2022-11-15T10:21:24.453Z,1.90
2022-11-15T10:22:24.410Z,2.10
2022-11-15T10:23:24.408Z,1.90
2022-11-15T10:24:24.377Z,2.20
2022-11-15T10:25:24.408Z,2.10
2022-11-15T10:26:24.356Z,2.20
2022-11-15T10:27:24.382Z,2.10
2022-11-15T10:28:24.388Z,2.10
2022-11-15T10:29:27.050Z,2.00
2022-11-15T10:30:24.299Z,2.30
2022-11-15T10:31:24.358Z,2.10
2022-11-15T10:32:24.291Z,2.10
2022-11-15T10:33:24.290Z,2.00
2022-11-15T10:34:24.243Z,2.00
2022-11-15T10:35:24.243Z,2.00
2022-11-15T10:36:24.219Z,1.90
2022-11-15T10:37:24.241Z,2.00
2022-11-15T10:38:24.190Z,2.20
2022-11-15T10:39:24.177Z,2.00
2022-11-15T10:40:24.170Z,2.10
2022-11-15T10:41:24.185Z,2.20
2022-11-15T10:42:24.131Z,2.00
2022-11-15T10:43:24.128Z,2.10
2022-11-15T10:44:24.133Z,2.10
2022-11-15T10:45:24.098Z,2.10
2022-11-15T10:46:45.586Z,2.10
2022-11-15T10:47:24.101Z,2.10
2022-11-15T10:48:24.057Z,2.00
2022-11-15T10:49:24.062Z,2.10
2022-11-15T10:50:24.033Z,2.20
2022-11-15T10:51:24.025Z,2.10
2022-11-15T10:52:23.996Z,2.00
2022-11-15T10:53:24.011Z,2.00
2022-11-15T10:54:24.021Z,2.00
2022-11-15T10:55:23.959Z,1.90
2022-11-15T10:56:23.970Z,1.90
2022-11-15T10:57:23.939Z,1.80
2022-11-15T10:58:23.954Z,1.80
2022-11-15T10:59:23.983Z,1.80
2022-11-15T11:00:23.926Z,1.90
2022-11-15T11:01:23.953Z,1.90
2022-11-15T11:02:23.872Z,1.90
2022-11-15T11:03:23.867Z,2.10
2022-11-15T11:04:23.858Z,2.00
2022-11-15T11:05:23.834Z,1.90
2022-11-15T11:06:23.812Z,1.90
2022-11-15T11:07:23.870Z,1.70
2022-11-15T11:08:23.790Z,2.50
2022-11-15T11:09:23.802Z,2.00
2022-11-15T11:10:49.723Z,2.10
2022-11-15T11:11:23.878Z,1.90
2022-11-15T11:12:23.728Z,2.50
2022-11-15T11:13:23.718Z,1.80
2022-11-15T11:14:23.700Z,1.80
2022-11-15T11:15:23.721Z,1.80
2022-11-15T11:16:23.677Z,1.90
2022-11-15T11:17:23.664Z,1.90
2022-11-15T11:18:23.697Z,1.80
2022-11-15T11:19:23.637Z,2.00
2022-11-15T11:20:23.624Z,2.10
2022-11-15T11:21:30.325Z,2.10
2022-11-15T11:22:23.607Z,2.10
2022-11-15T11:23:23.611Z,2.30
2022-11-15T11:24:23.576Z,2.30
2022-11-15T11:25:23.587Z,2.10
2022-11-15T11:26:23.538Z,2.20
2022-11-15T11:27:23.518Z,2.10
2022-11-15T11:28:23.538Z,2.10
2022-11-15T11:29:23.501Z,2.30
2022-11-15T11:30:23.498Z,2.30
2022-11-15T11:31:23.528Z,2.10
2022-11-15T11:32:23.461Z,2.20
2022-11-15T11:33:23.444Z,2.00
2022-11-15T11:34:23.438Z,2.10
2022-11-15T11:35:23.447Z,2.00
2022-11-15T11:36:23.411Z,2.00
2022-11-15T11:37:23.411Z,1.80
2022-11-15T11:38:23.372Z,1.90
2022-11-15T11:39:23.365Z,2.50
2022-11-15T11:40:23.361Z,2.10
2022-11-15T11:41:23.371Z,1.70
2022-11-15T11:42:23.331Z,1.90
2022-11-15T11:43:23.327Z,2.00
2022-11-15T11:44:23.298Z,2.70
2022-11-15T11:45:23.320Z,2.40
2022-11-15T11:46:23.305Z,2.30
2022-11-15T11:47:23.263Z,2.00
2022-11-15T11:48:23.252Z,2.00
2022-11-15T11:49:23.235Z,2.00
2022-11-15T11:50:23.259Z,2.00
2022-11-15T11:51:23.203Z,2.00
2022-11-15T11:52:23.204Z,2.00
2022-11-15T11:53:23.193Z,1.90
2022-11-15T11:54:23.185Z,1.90
2022-11-15T11:55:23.160Z,2.00
2022-11-15T11:56:23.145Z,1.70
2022-11-15T11:57:23.167Z,1.80
2022-11-15T11:58:23.125Z,1.90
2022-11-15T11:59:23.100Z,2.00
2022-11-15T12:00:23.130Z,1.70
2022-11-15T12:01:23.079Z,1.80
2022-11-15T12:02:23.218Z,2.00
2022-11-15T12:03:23.062Z,2.00
2022-11-15T12:04:23.041Z,2.00
2022-11-15T12:05:23.028Z,2.00
2022-11-15T12:06:23.016Z,2.00
2022-11-15T12:07:23.099Z,2.00
2022-11-15T12:08:22.985Z,2.10
2022-11-15T12:09:22.976Z,2.00
2022-11-15T12:10:22.991Z,2.00
2022-11-15T12:11:22.969Z,1.90
2022-11-15T12:12:22.929Z,2.00
2022-11-15T12:13:22.951Z,2.10
2022-11-15T12:14:22.901Z,2.30
2022-11-15T12:15:22.902Z,2.70
2022-11-15T12:16:22.895Z,2.40
2022-11-15T12:17:22.903Z,2.30
2022-11-15T12:18:22.892Z,2.00
2022-11-15T12:19:22.897Z,2.20
2022-11-15T12:20:22.829Z,2.20
2022-11-15T12:21:28.089Z,2.30
2022-11-15T12:22:22.802Z,2.10
2022-11-15T12:23:22.807Z,2.10
2022-11-15T12:24:22.816Z,2.10
2022-11-15T12:25:22.762Z,2.20
2022-11-15T12:26:22.770Z,2.00
2022-11-15T12:27:26.531Z,2.00
2022-11-15T12:28:22.724Z,2.20
2022-11-15T12:29:22.705Z,2.20
2022-11-15T12:30:22.703Z,2.80
2022-11-15T12:31:22.715Z,2.10
2022-11-15T12:32:22.688Z,2.20
2022-11-15T12:33:22.673Z,2.20
2022-11-15T12:34:22.644Z,2.30
2022-11-15T12:35:22.637Z,2.00
2022-11-15T12:36:22.621Z,2.20
2022-11-15T12:37:22.627Z,2.20
2022-11-15T12:38:22.582Z,2.40
2022-11-15T12:39:22.568Z,2.40
2022-11-15T12:40:22.579Z,2.70
2022-11-15T12:41:22.567Z,2.30
2022-11-15T12:42:22.537Z,2.10
2022-11-15T12:43:22.556Z,2.00
2022-11-15T12:44:22.524Z,2.00
2022-11-15T12:45:22.505Z,2.30
2022-11-15T12:46:22.481Z,1.70
2022-11-15T12:47:23.308Z,2.00
2022-11-15T12:48:22.483Z,2.50
2022-11-15T12:49:22.439Z,2.20
2022-11-15T12:50:22.464Z,2.30
2022-11-15T12:51:22.427Z,2.20
2022-11-15T12:52:22.466Z,2.20
2022-11-15T12:53:22.379Z,2.20
2022-11-15T12:54:22.379Z,2.30
2022-11-15T12:55:22.386Z,2.20
2022-11-15T12:56:22.341Z,2.30
2022-11-15T12:57:22.341Z,2.10
2022-11-15T12:58:22.339Z,2.20
2022-11-15T12:59:22.290Z,2.30
2022-11-15T13:00:25.281Z,2.30
2022-11-15T13:01:22.296Z,2.30
2022-11-15T13:02:22.276Z,2.30
2022-11-15T13:03:22.249Z,2.30
2022-11-15T13:04:22.249Z,2.00
2022-11-15T13:05:22.255Z,2.10
2022-11-15T13:06:22.214Z,2.10
2022-11-15T13:07:22.271Z,2.40
2022-11-15T13:08:22.181Z,2.20
2022-11-15T13:09:22.178Z,2.20
2022-11-15T13:10:27.581Z,2.20
2022-11-15T13:11:22.143Z,2.50
2022-11-15T13:12:22.241Z,2.10